Dutch
Home     News     Corporate     Events & Tours     Flight ops     Crew centre      
My transavia virtual    Join us    Last logs    Who is flying    Software    Training    VRTS     
 

view flightdata
view flightplan
view OFP
view flightlog



flightdata:
pilot: Bernard B Mienville
flight: TVF7232
from: EDDL (Dusseldorf)
to: LFPG (Paris Paris Charles de Gaulle)
date: 26-06-2018
departure: 18:56z
arrival: 20:01z
duration: 1:04
aircraft: B738 (FGZHA)
distance: 288 NM
touchdown: -193 ft/m @ 135 KIAS



flightplan:
-(FPL-TVF7232-IN
-B738/M-SDEHPRWXY/EHLSB1
-EDDL1857
-N0400F240 MODRU Z717 GOBNO UZ717 MAS UM617 SISGA UZ319 MOPIL
-LFPG0055 LFPO
-PBN/B1D1LO1 DOF/180626 REG/FGZHA SEL/JRDQ CODE/4841A5 OPR/TRA RVR/200 RMK/TCAS C/S FRANCE SOLEIL)



operational flightplan (OFP):
NO LOADSHEET AVAILABLE

WEATHER BRIEFING - GENERATED 26 JUN 2018 18:42 UTC
--------------------------------------------------------------------------------

EDDL LFPG LFPO

--------------------------------------------------------------------------------
ORIGIN: EDDL (DUSSELDORF)
--------------------------------------------------------------------------------
EDDL 261820Z 06008KT CAVOK 18/12 Q1025 NOSIG

EDDL 261700Z 2618/2724 04007KT CAVOK
      BECMG 2618/2621 VRB03KT
      BECMG 2708/2711 04010KT
      BECMG 2721/2724 04005KT


--------------------------------------------------------------------------------
DESTINATION: LFPG (PARIS)
--------------------------------------------------------------------------------
LFPG 261800Z 03010KT 320V070 CAVOK 25/08 Q1022 NOSIG

LFPG 261700Z 2618/2724 03008KT CAVOK TX29/2715Z TN15/2704Z=  LFPO 261700Z 2618/2724 04010KT CAVOK


--------------------------------------------------------------------------------
ALTERNATE: LFPO (PARIS)
--------------------------------------------------------------------------------
LFPO 261800Z 05010KT CAVOK 25/07 Q1022 NOSIG

LFPO 261700Z 2618/2724 04010KT CAVOK


NOTAM BRIEFING - GENERATED 26 JUN 2018 18:43 UTC
--------------------------------------------------------------------------------

EDDL LFPG LFPO

--------------------------------------------------------------------------------
GLOBAL TRANSAVIA.COM VIRTUAL NOTAMS
--------------------------------------------------------------------------------
REF:NIL PLEASE CONTACT OPERATIONS IN CASE OF STRUCTURAL FLIGHTPLAN ERRORS ON FLIGHT-OPS@TRANSAVIA-VIRTUAL.COM
VALID:UFN

REF:NIL
PLEASE CHECK ACARS EVERY 10 MINUTES WHEN FLYING WITH SOUND OFF. AN NEW ACARS MESSAGE PRODUCE A SOUND SIGNAL UNTILL ITS READ. FLOWCONTROL DON'T RECEIVE MUCH REACTION ON OUTGOING ACARS MESSAGES ACCORDING FLIGHTSTATUS.
SOURCE: SPL/HV/OCC/
END VALID: UFN

REF:NIL
PLEASE CONTACT FLOWCONTROL IN CASE OF PROBLEMS WITH ROUTINGS
SOURCE: SPL/HV/OCC/
END VALID: UFN

REF:NIL
IN CASE OF ENGINE-OUT FLY V2 OR V2 20 MAX. UNTIL ABOVE MSA.
LEVEL-OFF AT AN ALTITUDE ROUNDED OFF TO THE FIRST 1000 FT OF THE HIGHEST MSA.
E.G: MSA EHAM; 1.7 AND 2.3 LEVEL-OFF 3000 FT. AFTER LANDING MAKE A REP TO OCC ON 131.975
SOURCE:SPL/HV/OCC
END VALID:UFN



flightlog:
Pilot : Bernard B Mienville
Flight: TVF7232
From  : EDDL Dusseldorf
To    : LFPG Paris

[FLIGHTLOG] 1.5.4
26-06-2018 18:54:23z, logging started
26-06-2018 18:54:28z, flaps set to 38%
26-06-2018 18:56:38z, parking brake released
26-06-2018 18:57:57z, pos report: 000 KIAS, 00 156 ft, heading 211, winds 060 @ 08 kts
26-06-2018 19:05:49z, take-off at 161 KIAS
26-06-2018 19:05:49z, pos report: 161 KIAS, 00 158 ft, heading 052, winds 060 @ 08 kts
26-06-2018 19:05:49z, flying online @ IVAO (TVF7232)
26-06-2018 19:05:49z, position: EDDL - Dusseldorf
26-06-2018 19:05:55z, retracted gear at 181 KIAS and 135 ft AGL
26-06-2018 19:06:00z, flaps set to 25%
26-06-2018 19:06:09z, flaps set to 13%
26-06-2018 19:06:10z, flaps set to 0%
26-06-2018 19:12:58z, pos report: 305 KIAS, 24 286 ft, heading 226, winds 000 @ 30 kts
26-06-2018 19:27:59z, pos report: 319 KIAS, 24 289 ft, heading 213, winds 355 @ 28 kts
26-06-2018 19:40:15z, deployed spoilers
26-06-2018 19:40:41z, retracted spoilers
26-06-2018 19:42:19z, deployed spoilers
26-06-2018 19:43:00z, pos report: 246 KIAS, 09 495 ft, heading 250, winds 052 @ 15 kts
26-06-2018 19:44:43z, flaps set to 13%
26-06-2018 19:45:04z, below glideslope
26-06-2018 19:45:39z, retracted spoilers
26-06-2018 19:45:48z, intercepted localizer
26-06-2018 19:46:36z, on glideslope
26-06-2018 19:47:19z, flaps set to 38%
26-06-2018 19:47:20z, flaps set to 50%
26-06-2018 19:47:31z, flaps set to 62%
26-06-2018 19:47:34z, lowered gear at 211 KIAS and 3178 ft AGL
26-06-2018 19:48:31z, flaps set to 75%
26-06-2018 19:49:02z, flaps set to 87%
26-06-2018 19:51:24z, touchdown: -193ft/m at 135 KIAS
26-06-2018 19:51:24z, pos report: 135 KIAS, 00 402 ft, heading 083, winds 038 @ 08 kts
26-06-2018 19:51:24z, flying online @ IVAO (TVF7232)
26-06-2018 19:51:24z, position: LFPG - Paris
26-06-2018 19:51:25z, deployed spoilers
26-06-2018 19:51:44z, retracted spoilers
26-06-2018 19:51:50z, flaps set to 25%
26-06-2018 19:51:51z, flaps set to 0%
26-06-2018 19:58:01z, pos report: 015 KIAS, 00 401 ft, heading 175, winds 023 @ 06 kts
26-06-2018 20:01:03z, parking brake set
26-06-2018 20:02:13z, logging ended

©2009-2020, transavia virtual. All rights reserved. This website is only meant for simulation purposes.
This website is not owned by transavia, nor is transavia responsible for the content of this website.